Time;durP1;ratioP1;P1;durP2;ratioP2;P2;SDS_P1;SDS_P2;PMS_P1;PMS_P2;Temp;Humidity;BMP_temperature;BMP_pressure;BME280_temperature;BME280_humidity;BME280_pressure;Samples;Min_cycle;Max_cycle;Signal;HPM_P1;HPM_P2
2023/01/22 00:00:07;;;;;;;;;;;17.70;35.20;;;;;;8367881;28;19920;-46
2023/01/22 00:04:08;;;;;;;;;;;17.70;35.20;;;;;;8367980;28;19963;-45
2023/01/22 00:08:08;;;;;;;;;;;17.70;35.30;;;;;;8367888;28;19932;-45
2023/01/22 00:12:09;;;;;;;;;;;17.60;35.20;;;;;;8367306;28;20399;-45
2023/01/22 00:16:13;;;;;;;;;;;17.60;35.30;;;;;;8367885;28;19924;-45
2023/01/22 00:20:13;;;;;;;;;;;17.60;35.30;;;;;;8367613;28;19917;-46
2023/01/22 00:24:14;;;;;;;;;;;17.60;35.30;;;;;;8367639;28;19923;-46
2023/01/22 00:28:15;;;;;;;;;;;17.60;35.30;;;;;;8367285;28;19948;-44
2023/01/22 00:32:16;;;;;;;;;;;17.60;35.30;;;;;;8366442;28;20305;-45
2023/01/22 00:36:18;;;;;;;;;;;17.60;35.30;;;;;;8367203;28;19913;-45
2023/01/22 00:40:18;;;;;;;;;;;17.60;35.30;;;;;;8367437;28;19917;-45
2023/01/22 00:44:18;;;;;;;;;;;17.60;35.30;;;;;;8366610;28;19921;-45
2023/01/22 00:48:19;;;;;;;;;;;17.60;35.30;;;;;;8366475;28;19929;-45
2023/01/22 00:52:19;;;;;;;;;;;17.60;35.30;;;;;;8366643;28;19916;-44
2023/01/22 00:56:20;;;;;;;;;;;17.50;35.30;;;;;;8366334;28;19952;-44
2023/01/22 01:00:21;;;;;;;;;;;17.50;35.30;;;;;;8366772;28;19963;-45
2023/01/22 01:04:21;;;;;;;;;;;17.50;35.30;;;;;;8366494;28;19924;-45
2023/01/22 01:08:22;;;;;;;;;;;17.50;35.30;;;;;;8365646;28;19946;-45
2023/01/22 01:12:23;;;;;;;;;;;17.50;35.30;;;;;;8366015;28;20274;-45
2023/01/22 01:16:25;;;;;;;;;;;17.50;35.30;;;;;;8366076;28;19916;-45
2023/01/22 01:20:25;;;;;;;;;;;17.50;35.30;;;;;;8365782;28;19916;-45
2023/01/22 01:24:26;;;;;;;;;;;17.40;35.30;;;;;;8365706;28;19924;-45
2023/01/22 01:28:27;;;;;;;;;;;17.40;35.30;;;;;;8365551;28;19951;-45
2023/01/22 01:32:28;;;;;;;;;;;17.40;35.30;;;;;;8365090;28;19943;-44
2023/01/22 01:36:28;;;;;;;;;;;17.40;35.30;;;;;;8365237;28;19942;-44
2023/01/22 01:40:29;;;;;;;;;;;17.40;35.30;;;;;;8365476;28;19917;-45
2023/01/22 01:44:30;;;;;;;;;;;17.40;35.30;;;;;;8363641;28;19932;-45
2023/01/22 01:48:39;;;;;;;;;;;17.40;35.30;;;;;;8364745;28;19963;-44
2023/01/22 01:52:40;;;;;;;;;;;17.40;35.40;;;;;;8364914;28;19942;-44
2023/01/22 01:56:44;;;;;;;;;;;17.30;35.30;;;;;;8363988;28;20360;-45
2023/01/22 02:00:45;;;;;;;;;;;17.40;35.40;;;;;;8364811;28;20321;-45
2023/01/22 02:04:47;;;;;;;;;;;17.40;35.40;;;;;;8350139;28;20027;-44
2023/01/22 02:08:49;;;;;;;;;;;17.30;35.40;;;;;;8353736;28;20393;-46
2023/01/22 02:12:50;;;;;;;;;;;17.30;35.40;;;;;;8364296;28;19927;-45
2023/01/22 02:17:06;;;;;;;;;;;17.30;35.30;;;;;;8364017;28;19920;-44
2023/01/22 02:21:25;;;;;;;;;;;17.30;35.40;;;;;;8363679;28;19963;-43
2023/01/22 02:25:26;;;;;;;;;;;17.30;35.40;;;;;;8364076;28;19927;-44
2023/01/22 02:29:27;;;;;;;;;;;17.20;35.40;;;;;;8363311;28;20278;-45
2023/01/22 02:33:28;;;;;;;;;;;17.20;35.40;;;;;;8363998;28;20297;-44
2023/01/22 02:37:29;;;;;;;;;;;17.20;35.40;;;;;;8363745;28;19917;-45
2023/01/22 02:41:29;;;;;;;;;;;17.20;35.40;;;;;;8362837;28;19921;-45
2023/01/22 02:45:30;;;;;;;;;;;17.20;35.40;;;;;;8363727;28;19921;-44
2023/01/22 02:49:30;;;;;;;;;;;17.20;35.90;;;;;;8363200;28;19959;-44
2023/01/22 02:53:31;;;;;;;;;;;17.10;35.40;;;;;;8362700;28;20377;-44
2023/01/22 02:57:31;;;;;;;;;;;17.10;35.40;;;;;;8363199;28;19924;-45
2023/01/22 03:01:32;;;;;;;;;;;17.20;35.50;;;;;;8363299;28;19941;-44
2023/01/22 03:05:33;;;;;;;;;;;17.20;35.40;;;;;;8362866;28;19921;-44
2023/01/22 03:09:33;;;;;;;;;;;17.10;35.40;;;;;;8362928;28;19975;-45
2023/01/22 03:22:14;;;;;;;;;;;17.10;35.40;;;;;;8368213;28;19963;-44
2023/01/22 03:26:15;;;;;;;;;;;17.10;35.40;;;;;;8362575;28;20339;-46
2023/01/22 03:30:15;;;;;;;;;;;17.00;35.40;;;;;;8363040;28;19917;-44
2023/01/22 03:34:17;;;;;;;;;;;17.10;35.50;;;;;;8362890;28;19956;-44
2023/01/22 03:38:17;;;;;;;;;;;17.00;35.40;;;;;;8362130;28;19917;-44
2023/01/22 03:42:17;;;;;;;;;;;17.00;35.40;;;;;;8362422;28;19917;-44
2023/01/22 03:46:18;;;;;;;;;;;17.00;35.40;;;;;;8362695;28;19928;-44
2023/01/22 03:50:19;;;;;;;;;;;17.00;35.50;;;;;;8361971;28;19920;-44
2023/01/22 03:54:19;;;;;;;;;;;17.00;35.50;;;;;;8362418;28;20039;-45
2023/01/22 03:58:20;;;;;;;;;;;17.00;35.50;;;;;;8362568;28;19924;-45
2023/01/22 04:02:20;;;;;;;;;;;17.00;35.50;;;;;;8361779;28;19921;-44
2023/01/22 04:06:21;;;;;;;;;;;16.90;35.40;;;;;;8364008;28;19970;-44
2023/01/22 04:10:21;;;;;;;;;;;16.90;35.40;;;;;;8368241;28;20385;-45
2023/01/22 04:14:22;;;;;;;;;;;17.00;35.50;;;;;;8367546;28;19916;-46
2023/01/22 04:18:22;;;;;;;;;;;17.00;35.50;;;;;;8368070;28;19924;-44
2023/01/22 04:22:23;;;;;;;;;;;17.00;35.50;;;;;;8367929;28;19917;-43
2023/01/22 04:26:23;;;;;;;;;;;16.90;35.40;;;;;;8367234;28;20016;-44
2023/01/22 04:30:24;;;;;;;;;;;16.90;35.40;;;;;;8367390;28;20259;-46
2023/01/22 04:34:24;;;;;;;;;;;16.90;35.40;;;;;;8367241;28;19924;-44
2023/01/22 04:38:25;;;;;;;;;;;16.90;35.50;;;;;;8366808;28;20289;-44
2023/01/22 04:42:26;;;;;;;;;;;16.90;35.40;;;;;;8367117;28;19923;-45
2023/01/22 04:46:26;;;;;;;;;;;16.90;35.50;;;;;;8367332;28;19921;-44
2023/01/22 04:50:28;;;;;;;;;;;16.90;35.50;;;;;;8366487;28;20365;-45
2023/01/22 04:54:29;;;;;;;;;;;16.90;35.40;;;;;;8366560;28;19917;-45
2023/01/22 04:58:31;;;;;;;;;;;16.90;35.40;;;;;;8366076;28;21309;-44
2023/01/22 05:02:31;;;;;;;;;;;16.90;35.40;;;;;;8365993;28;19931;-44
2023/01/22 05:06:32;;;;;;;;;;;16.90;35.40;;;;;;8366457;28;19927;-44
2023/01/22 05:10:32;;;;;;;;;;;16.90;35.40;;;;;;8364476;28;19924;-45
2023/01/22 05:14:32;;;;;;;;;;;16.90;35.50;;;;;;8365417;28;19937;-45
2023/01/22 05:18:33;;;;;;;;;;;17.00;35.50;;;;;;8365890;28;20051;-45
2023/01/22 05:22:33;;;;;;;;;;;17.10;35.50;;;;;;8365872;28;19913;-45
2023/01/22 05:26:34;;;;;;;;;;;17.10;35.30;;;;;;8365010;28;20375;-45
2023/01/22 05:30:34;;;;;;;;;;;17.20;35.20;;;;;;8365580;28;19970;-45
2023/01/22 05:34:35;;;;;;;;;;;17.30;35.20;;;;;;8365404;28;19920;-45
2023/01/22 05:38:35;;;;;;;;;;;17.30;35.10;;;;;;8364534;28;20370;-45
2023/01/22 05:42:35;;;;;;;;;;;17.40;35.10;;;;;;8365139;28;19913;-45
2023/01/22 05:46:36;;;;;;;;;;;17.40;35.10;;;;;;8364897;28;19966;-45
2023/01/22 05:50:38;;;;;;;;;;;17.50;35.10;;;;;;8364388;28;20007;-45
2023/01/22 05:54:38;;;;;;;;;;;17.50;35.00;;;;;;8364512;28;19924;-44
2023/01/22 05:58:39;;;;;;;;;;;17.60;35.10;;;;;;8364627;28;20011;-45
2023/01/22 06:02:39;;;;;;;;;;;17.60;35.10;;;;;;8364116;28;19920;-45
2023/01/22 06:06:39;;;;;;;;;;;17.60;35.00;;;;;;8364472;28;19928;-45
2023/01/22 06:10:40;;;;;;;;;;;17.70;35.00;;;;;;8364325;28;19924;-44
2023/01/22 06:14:40;;;;;;;;;;;17.70;34.90;;;;;;8363314;28;19917;-46
2023/01/22 06:18:41;;;;;;;;;;;17.70;34.90;;;;;;8364232;28;20561;-45
2023/01/22 06:22:41;;;;;;;;;;;17.80;34.90;;;;;;8364143;28;19913;-45
2023/01/22 06:26:42;;;;;;;;;;;17.80;34.90;;;;;;8363089;28;19925;-45
2023/01/22 06:30:42;;;;;;;;;;;17.80;34.90;;;;;;8363087;28;19924;-45
2023/01/22 06:34:43;;;;;;;;;;;17.90;34.90;;;;;;8363290;28;19925;-45
2023/01/22 06:38:44;;;;;;;;;;;17.90;34.80;;;;;;8362488;28;19971;-45
2023/01/22 06:42:44;;;;;;;;;;;17.90;34.90;;;;;;8363843;28;19920;-46
2023/01/22 06:46:45;;;;;;;;;;;18.00;34.90;;;;;;8363087;28;19932;-46
2023/01/22 06:50:46;;;;;;;;;;;18.00;34.80;;;;;;8362637;28;19948;-45
2023/01/22 06:54:46;;;;;;;;;;;18.00;34.80;;;;;;8362973;28;19928;-46
2023/01/22 06:58:47;;;;;;;;;;;18.10;34.80;;;;;;8362899;28;20370;-45
2023/01/22 07:02:47;;;;;;;;;;;18.10;34.80;;;;;;8362628;28;19913;-45
2023/01/22 07:06:47;;;;;;;;;;;18.10;34.80;;;;;;8362780;28;19931;-45
2023/01/22 07:10:48;;;;;;;;;;;18.10;34.70;;;;;;8362685;28;19917;-46
2023/01/22 07:14:48;;;;;;;;;;;18.20;34.80;;;;;;8362312;28;19982;-46
2023/01/22 07:18:49;;;;;;;;;;;18.20;34.80;;;;;;8362842;28;19927;-46
2023/01/22 07:22:50;;;;;;;;;;;18.20;34.70;;;;;;8362830;28;20382;-46
2023/01/22 07:26:50;;;;;;;;;;;18.20;34.70;;;;;;8362180;28;19935;-45
2023/01/22 07:30:51;;;;;;;;;;;18.20;34.70;;;;;;8362955;28;20366;-46
2023/01/22 07:34:51;;;;;;;;;;;18.20;34.70;;;;;;8362795;28;19920;-45
2023/01/22 07:38:52;;;;;;;;;;;18.20;34.70;;;;;;8362182;28;20366;-45
2023/01/22 07:42:53;;;;;;;;;;;18.30;34.60;;;;;;8366953;28;20000;-48
2023/01/22 07:46:53;;;;;;;;;;;18.30;34.70;;;;;;8368672;28;19925;-45
2023/01/22 07:50:57;;;;;;;;;;;18.30;34.60;;;;;;8368318;28;20297;-46
2023/01/22 07:54:57;;;;;;;;;;;18.40;34.70;;;;;;8368538;28;19925;-46
2023/01/22 07:58:58;;;;;;;;;;;18.40;34.60;;;;;;8368369;28;19986;-45
2023/01/22 08:02:58;;;;;;;;;;;18.40;34.70;;;;;;8368237;28;19959;-45
2023/01/22 08:06:59;;;;;;;;;;;18.40;34.70;;;;;;8368067;28;20378;-46
2023/01/22 08:10:59;;;;;;;;;;;18.40;34.60;;;;;;8349412;28;20348;-46
2023/01/22 08:14:59;;;;;;;;;;;18.40;34.60;;;;;;8347746;28;19921;-46
2023/01/22 08:19:00;;;;;;;;;;;18.40;34.60;;;;;;8367623;28;19974;-45
2023/01/22 08:23:00;;;;;;;;;;;18.50;34.60;;;;;;8367695;28;19917;-45
2023/01/22 08:27:01;;;;;;;;;;;18.50;34.60;;;;;;8367057;28;19940;-46
2023/01/22 08:31:02;;;;;;;;;;;18.50;34.60;;;;;;8367786;28;19958;-46
2023/01/22 08:35:02;;;;;;;;;;;18.50;34.60;;;;;;8367472;28;19924;-46
2023/01/22 08:39:03;;;;;;;;;;;18.60;34.60;;;;;;8366757;28;19925;-45
2023/01/22 08:43:03;;;;;;;;;;;18.60;34.60;;;;;;8367360;28;19916;-45
2023/01/22 08:47:04;;;;;;;;;;;18.60;34.60;;;;;;8366875;28;20439;-46
2023/01/22 08:51:04;;;;;;;;;;;18.60;34.60;;;;;;8366443;28;19991;-46
2023/01/22 08:55:08;;;;;;;;;;;18.60;34.50;;;;;;8366580;28;19928;-48
2023/01/22 08:59:09;;;;;;;;;;;18.60;34.50;;;;;;8366556;28;19951;-46
2023/01/22 09:03:09;;;;;;;;;;;18.60;34.40;;;;;;8366375;28;20321;-46
2023/01/22 09:07:09;;;;;;;;;;;18.70;34.40;;;;;;8366563;28;19976;-45
2023/01/22 09:11:10;;;;;;;;;;;18.70;34.40;;;;;;8366415;28;19917;-46
2023/01/22 09:15:10;;;;;;;;;;;18.70;34.40;;;;;;8365742;28;19921;-45
2023/01/22 09:19:11;;;;;;;;;;;18.70;34.40;;;;;;8365884;28;19913;-45
2023/01/22 09:23:11;;;;;;;;;;;18.70;34.30;;;;;;8365924;28;19975;-46
2023/01/22 09:27:12;;;;;;;;;;;18.80;34.40;;;;;;8365724;28;19948;-46
2023/01/22 09:31:13;;;;;;;;;;;18.80;34.40;;;;;;8365501;28;19917;-46
2023/01/22 09:35:13;;;;;;;;;;;18.80;34.40;;;;;;8365139;28;19926;-44
2023/01/22 09:39:14;;;;;;;;;;;18.80;34.30;;;;;;8365331;28;19913;-46
2023/01/22 09:43:20;;;;;;;;;;;18.80;34.40;;;;;;8365423;28;20269;-45
2023/01/22 09:47:40;;;;;;;;;;;18.80;34.30;;;;;;8364449;28;20027;-45
2023/01/22 09:52:00;;;;;;;;;;;18.90;34.90;;;;;;8364094;28;19964;-46
2023/01/22 09:56:03;;;;;;;;;;;18.90;34.30;;;;;;8364847;28;19928;-46
2023/01/22 10:00:12;;;;;;;;;;;18.90;34.30;;;;;;8364066;28;19924;-47
2023/01/22 10:04:31;;;;;;;;;;;18.90;34.30;;;;;;8363894;28;20051;-44
2023/01/22 10:08:32;;;;;;;;;;;18.90;34.20;;;;;;8363951;28;20386;-47
2023/01/22 10:12:33;;;;;;;;;;;18.90;34.20;;;;;;8364295;28;19917;-47
2023/01/22 10:16:34;;;;;;;;;;;19.00;34.30;;;;;;8364106;28;19921;-47
2023/01/22 10:20:34;;;;;;;;;;;19.00;34.20;;;;;;8363798;28;19917;-46
2023/01/22 10:24:35;;;;;;;;;;;19.00;34.20;;;;;;8363943;28;19920;-46
2023/01/22 10:28:35;;;;;;;;;;;19.00;34.20;;;;;;8363907;28;19920;-46
2023/01/22 10:32:35;;;;;;;;;;;19.10;34.20;;;;;;8363083;28;20289;-47
2023/01/22 10:36:36;;;;;;;;;;;19.10;34.20;;;;;;8363724;28;19917;-46
2023/01/22 10:40:39;;;;;;;;;;;19.10;34.20;;;;;;8363670;28;19925;-46
2023/01/22 10:44:40;;;;;;;;;;;19.00;34.10;;;;;;8362817;28;19919;-46
2023/01/22 10:48:40;;;;;;;;;;;19.10;34.10;;;;;;8363455;28;19964;-46
2023/01/22 10:52:52;;;;;;;;;;;19.10;34.00;;;;;;8363348;28;19921;-49
2023/01/22 10:57:01;;;;;;;;;;;19.10;34.10;;;;;;8363080;28;19928;-46
2023/01/22 11:01:04;;;;;;;;;;;19.10;34.10;;;;;;8369260;28;20147;-46
2023/01/22 11:05:18;;;;;;;;;;;19.10;34.10;;;;;;8363289;28;20281;-47
2023/01/22 11:09:21;;;;;;;;;;;19.20;34.20;;;;;;8350303;28;20301;-46
2023/01/22 11:13:30;;;;;;;;;;;19.20;34.20;;;;;;8361096;28;20003;-48
2023/01/22 11:17:36;;;;;;;;;;;19.20;34.80;;;;;;8368152;28;19917;-47
2023/01/22 11:21:45;;;;;;;;;;;19.20;34.20;;;;;;8369990;28;19998;-47
2023/01/22 11:25:56;;;;;;;;;;;19.20;34.20;;;;;;8369421;28;19952;-46
2023/01/22 11:30:19;;;;;;;;;;;19.20;34.10;;;;;;8368813;28;20366;-46
2023/01/22 11:34:33;;;;;;;;;;;19.20;34.10;;;;;;8369700;28;20130;-46
2023/01/22 11:38:42;;;;;;;;;;;19.30;34.20;;;;;;8368779;28;19921;-46
2023/01/22 11:42:48;;;;;;;;;;;19.20;34.10;;;;;;8369260;28;19956;-46
2023/01/22 11:46:48;;;;;;;;;;;19.30;34.20;;;;;;8368843;28;19921;-46
2023/01/22 11:51:02;;;;;;;;;;;19.20;34.10;;;;;;8368200;28;20012;-47
2023/01/22 11:55:21;;;;;;;;;;;19.20;34.10;;;;;;8368461;28;20011;-47
2023/01/22 11:59:45;;;;;;;;;;;19.30;34.20;;;;;;8368121;28;19924;-46
2023/01/22 12:03:52;;;;;;;;;;;19.30;34.00;;;;;;8372540;28;19917;-48
2023/01/22 12:08:11;;;;;;;;;;;19.30;34.10;;;;;;8368056;28;19925;-47
2023/01/22 12:12:31;;;;;;;;;;;19.30;34.10;;;;;;8367437;28;20400;-46
2023/01/22 12:16:41;;;;;;;;;;;19.30;34.10;;;;;;8367748;28;19940;-45
2023/01/22 12:20:47;;;;;;;;;;;19.30;34.00;;;;;;8365843;28;19974;-47
2023/01/22 12:24:50;;;;;;;;;;;19.30;34.10;;;;;;8367767;28;19920;-46
2023/01/22 12:28:50;;;;;;;;;;;19.40;34.00;;;;;;8366737;28;19943;-46
2023/01/22 12:32:57;;;;;;;;;;;19.40;34.00;;;;;;8366558;28;19916;-46
2023/01/22 12:36:59;;;;;;;;;;;19.40;34.00;;;;;;8367386;28;19917;-46
2023/01/22 12:41:05;;;;;;;;;;;19.40;34.10;;;;;;8367186;28;20298;-48
2023/01/22 12:45:05;;;;;;;;;;;19.40;34.10;;;;;;8366551;28;19917;-49
2023/01/22 12:49:07;;;;;;;;;;;19.40;34.00;;;;;;8366587;28;19962;-46
2023/01/22 12:53:21;;;;;;;;;;;19.40;34.00;;;;;;8366637;28;19963;-47
2023/01/22 12:57:23;;;;;;;;;;;19.40;34.10;;;;;;8366204;28;19971;-46
2023/01/22 13:01:30;;;;;;;;;;;19.40;34.10;;;;;;8366224;28;19974;-46
2023/01/22 13:05:31;;;;;;;;;;;19.40;34.10;;;;;;8366053;28;19995;-45
2023/01/22 13:09:34;;;;;;;;;;;19.40;34.00;;;;;;8366616;28;20366;-46
2023/01/22 13:13:41;;;;;;;;;;;19.40;34.00;;;;;;8366390;28;19917;-46
2023/01/22 13:17:42;;;;;;;;;;;19.40;34.00;;;;;;8365662;28;19963;-46
2023/01/22 13:21:42;;;;;;;;;;;19.50;34.10;;;;;;8365898;28;20366;-46
2023/01/22 13:25:43;;;;;;;;;;;19.50;34.00;;;;;;8365710;28;19984;-46
2023/01/22 13:29:44;;;;;;;;;;;19.50;34.10;;;;;;8365463;28;19924;-46
2023/01/22 13:33:51;;;;;;;;;;;19.50;34.00;;;;;;8365779;28;19917;-45
2023/01/22 13:37:52;;;;;;;;;;;19.50;34.00;;;;;;8364883;28;19959;-45
2023/01/22 13:41:53;;;;;;;;;;;19.50;34.10;;;;;;8364421;28;19952;-45
2023/01/22 13:45:55;;;;;;;;;;;19.50;34.00;;;;;;8365364;28;20297;-44
2023/01/22 13:49:55;;;;;;;;;;;19.50;34.00;;;;;;8365555;28;20305;-45
2023/01/22 13:53:56;;;;;;;;;;;19.50;34.00;;;;;;8364544;28;19917;-45
2023/01/22 13:57:57;;;;;;;;;;;19.50;34.00;;;;;;8364596;28;20396;-46
2023/01/22 14:01:58;;;;;;;;;;;19.50;34.00;;;;;;8364631;28;19917;-46
2023/01/22 14:06:07;;;;;;;;;;;19.60;34.00;;;;;;8347096;28;19925;-46
2023/01/22 14:10:20;;;;;;;;;;;19.60;34.00;;;;;;8364831;28;19917;-46
2023/01/22 14:14:21;;;;;;;;;;;19.60;33.90;;;;;;8363905;28;20004;-46
2023/01/22 14:18:21;;;;;;;;;;;19.60;34.00;;;;;;8364085;28;19917;-45
2023/01/22 14:22:22;;;;;;;;;;;19.60;34.00;;;;;;8364124;28;19920;-45
2023/01/22 14:26:22;;;;;;;;;;;19.60;33.90;;;;;;8363365;28;19925;-46
2023/01/22 14:30:22;;;;;;;;;;;19.60;33.90;;;;;;8363952;28;19913;-46
2023/01/22 14:34:23;;;;;;;;;;;19.60;33.90;;;;;;8363810;28;19983;-45
2023/01/22 14:38:24;;;;;;;;;;;19.60;33.80;;;;;;8363042;28;19920;-46
2023/01/22 14:42:26;;;;;;;;;;;19.60;33.80;;;;;;8363797;28;19917;-45
2023/01/22 14:46:27;;;;;;;;;;;19.60;33.80;;;;;;8363502;28;20386;-45
2023/01/22 14:50:27;;;;;;;;;;;19.60;33.70;;;;;;8362897;28;19920;-45
2023/01/22 14:54:28;;;;;;;;;;;19.60;33.70;;;;;;8363335;28;20008;-45
2023/01/22 14:58:28;;;;;;;;;;;19.70;33.70;;;;;;8363145;28;19917;-45
2023/01/22 15:02:29;;;;;;;;;;;19.60;33.70;;;;;;8362634;28;19931;-45
2023/01/22 15:06:29;;;;;;;;;;;19.60;33.70;;;;;;8362780;28;19974;-46
2023/01/22 15:10:30;;;;;;;;;;;19.60;33.70;;;;;;8363222;28;19952;-45
2023/01/22 15:14:30;;;;;;;;;;;19.60;33.60;;;;;;8362035;28;19921;-47
2023/01/22 15:18:31;;;;;;;;;;;19.60;33.70;;;;;;8362793;28;20008;-45
2023/01/22 15:22:31;;;;;;;;;;;19.60;33.60;;;;;;8363014;28;19916;-47
2023/01/22 15:26:35;;;;;;;;;;;19.60;33.70;;;;;;8361903;28;19925;-46
2023/01/22 15:30:35;;;;;;;;;;;19.60;33.60;;;;;;8363166;28;19913;-45
2023/01/22 15:34:36;;;;;;;;;;;19.60;33.60;;;;;;8362616;28;20290;-46
2023/01/22 15:38:36;;;;;;;;;;;19.60;33.60;;;;;;8362037;28;19924;-46
2023/01/22 15:42:37;;;;;;;;;;;19.60;33.60;;;;;;8362291;28;20373;-48
2023/01/22 15:46:38;;;;;;;;;;;19.60;33.60;;;;;;8362461;28;19947;-46
2023/01/22 15:50:38;;;;;;;;;;;19.60;33.60;;;;;;8362421;28;19917;-47
2023/01/22 15:54:39;;;;;;;;;;;19.60;33.70;;;;;;8362192;28;19917;-47
2023/01/22 15:58:39;;;;;;;;;;;19.70;33.70;;;;;;8362149;28;19948;-46
2023/01/22 16:02:39;;;;;;;;;;;19.60;33.60;;;;;;8363916;28;19917;-46
2023/01/22 16:06:40;;;;;;;;;;;19.60;33.70;;;;;;8368401;28;19921;-47
2023/01/22 16:10:40;;;;;;;;;;;19.60;33.70;;;;;;8368316;28;19942;-46
2023/01/22 16:14:41;;;;;;;;;;;19.60;33.70;;;;;;8367274;28;19917;-46
2023/01/22 16:18:42;;;;;;;;;;;19.60;33.80;;;;;;8368156;28;20003;-46
2023/01/22 16:22:44;;;;;;;;;;;19.60;33.60;;;;;;8367874;28;19917;-45
2023/01/22 16:26:44;;;;;;;;;;;19.70;33.70;;;;;;8367334;28;20382;-45
2023/01/22 16:30:45;;;;;;;;;;;19.70;33.70;;;;;;8367967;28;19987;-45
2023/01/22 16:34:45;;;;;;;;;;;19.70;33.70;;;;;;8367344;28;19917;-47
2023/01/22 16:38:46;;;;;;;;;;;19.70;33.70;;;;;;8366581;28;20004;-48
2023/01/22 16:42:56;;;;;;;;;;;19.70;33.60;;;;;;8367301;28;19917;-46
2023/01/22 16:46:58;;;;;;;;;;;19.70;33.70;;;;;;8367225;28;20374;-46
2023/01/22 16:50:59;;;;;;;;;;;19.70;33.70;;;;;;8365720;28;19912;-46
2023/01/22 16:54:59;;;;;;;;;;;19.70;33.70;;;;;;8366686;28;19920;-46
2023/01/22 16:59:00;;;;;;;;;;;19.70;33.60;;;;;;8366516;28;20007;-45
2023/01/22 17:03:00;;;;;;;;;;;19.70;33.60;;;;;;8366055;28;20292;-46
2023/01/22 17:07:00;;;;;;;;;;;19.70;33.60;;;;;;8365369;28;20322;-45
2023/01/22 17:11:01;;;;;;;;;;;19.70;33.60;;;;;;8366247;28;19924;-46
2023/01/22 17:15:01;;;;;;;;;;;19.70;33.60;;;;;;8365369;28;20369;-46
2023/01/22 17:19:02;;;;;;;;;;;19.70;33.60;;;;;;8366047;28;20008;-45
2023/01/22 17:23:03;;;;;;;;;;;19.70;33.60;;;;;;8365998;28;19924;-45
2023/01/22 17:27:03;;;;;;;;;;;19.70;33.60;;;;;;8365375;28;20409;-45
2023/01/22 17:31:08;;;;;;;;;;;19.70;33.60;;;;;;8365576;28;20361;-46
2023/01/22 17:35:09;;;;;;;;;;;19.70;33.60;;;;;;8365486;28;19973;-45
2023/01/22 17:39:13;;;;;;;;;;;19.70;33.60;;;;;;8364778;28;19917;-45
2023/01/22 17:43:13;;;;;;;;;;;19.70;33.60;;;;;;8365601;28;19971;-45
2023/01/22 17:47:14;;;;;;;;;;;19.70;33.60;;;;;;8365409;28;19947;-46
2023/01/22 17:51:16;;;;;;;;;;;19.70;33.50;;;;;;8365192;28;20369;-45
2023/01/22 17:55:16;;;;;;;;;;;19.70;33.50;;;;;;8364862;28;20015;-46
2023/01/22 17:59:16;;;;;;;;;;;19.70;33.50;;;;;;8364382;28;19917;-45
2023/01/22 18:03:17;;;;;;;;;;;19.70;33.50;;;;;;8364670;28;19962;-46
2023/01/22 18:07:17;;;;;;;;;;;19.70;33.50;;;;;;8364943;28;19947;-46
2023/01/22 18:11:19;;;;;;;;;;;19.70;33.50;;;;;;8363894;28;20012;-52
2023/01/22 18:15:20;;;;;;;;;;;19.70;33.50;;;;;;8364751;28;19917;-46
2023/01/22 18:19:22;;;;;;;;;;;19.70;33.50;;;;;;8364173;28;20131;-45
2023/01/22 18:23:22;;;;;;;;;;;19.70;33.50;;;;;;8363681;28;19960;-46
2023/01/22 18:27:23;;;;;;;;;;;19.70;33.50;;;;;;8363453;28;19925;-45
2023/01/22 18:31:25;;;;;;;;;;;19.70;33.40;;;;;;8363976;28;19928;-45
2023/01/22 18:35:26;;;;;;;;;;;19.70;33.40;;;;;;8363343;28;19921;-46
2023/01/22 18:39:27;;;;;;;;;;;19.70;33.40;;;;;;8363942;28;20362;-45
2023/01/22 18:43:27;;;;;;;;;;;19.70;33.40;;;;;;8363438;28;19963;-46
2023/01/22 18:47:28;;;;;;;;;;;19.70;33.40;;;;;;8363132;28;19921;-46
2023/01/22 18:51:28;;;;;;;;;;;19.70;33.50;;;;;;8363345;28;20370;-46
2023/01/22 18:55:29;;;;;;;;;;;19.70;33.50;;;;;;8363185;28;19999;-46
2023/01/22 18:59:30;;;;;;;;;;;19.70;33.50;;;;;;8362752;28;20008;-45
2023/01/22 19:03:30;;;;;;;;;;;19.70;33.40;;;;;;8362952;28;19928;-45
2023/01/22 19:07:36;;;;;;;;;;;19.70;33.50;;;;;;8363293;28;19967;-45
2023/01/22 19:11:37;;;;;;;;;;;19.70;33.40;;;;;;8364204;28;20376;-46
2023/01/22 19:15:38;;;;;;;;;;;19.70;33.40;;;;;;8362898;28;19924;-45
2023/01/22 19:19:38;;;;;;;;;;;19.70;33.30;;;;;;8362723;28;19917;-45
2023/01/22 19:23:42;;;;;;;;;;;19.70;33.40;;;;;;8362337;28;19917;-45
2023/01/22 19:27:43;;;;;;;;;;;19.80;33.40;;;;;;8362717;28;19974;-46
2023/01/22 19:31:45;;;;;;;;;;;19.70;33.30;;;;;;8362545;28;19917;-45
2023/01/22 19:35:46;;;;;;;;;;;19.80;33.30;;;;;;8363160;28;19916;-46
2023/01/22 19:39:47;;;;;;;;;;;19.70;33.40;;;;;;8369347;28;19921;-46
2023/01/22 19:43:48;;;;;;;;;;;19.70;33.30;;;;;;8368929;28;19917;-45
2023/01/22 19:47:49;;;;;;;;;;;19.70;33.30;;;;;;8368507;28;20004;-45
2023/01/22 19:51:49;;;;;;;;;;;19.70;33.30;;;;;;8368613;28;19916;-46
2023/01/22 19:55:49;;;;;;;;;;;19.70;33.30;;;;;;8368427;28;19921;-45
2023/01/22 19:59:51;;;;;;;;;;;19.70;33.30;;;;;;8368043;28;20155;-45
2023/01/22 20:03:53;;;;;;;;;;;19.80;33.30;;;;;;8367345;28;19997;-46
2023/01/22 20:07:55;;;;;;;;;;;19.80;33.30;;;;;;8368226;28;19921;-46
2023/01/22 20:11:56;;;;;;;;;;;19.80;33.30;;;;;;8367673;28;19917;-45
2023/01/22 20:15:58;;;;;;;;;;;19.80;33.30;;;;;;8368188;28;19962;-45
2023/01/22 20:19:58;;;;;;;;;;;19.80;33.30;;;;;;8367880;28;19917;-47
2023/01/22 20:23:59;;;;;;;;;;;19.80;33.30;;;;;;8367366;28;19916;-45
2023/01/22 20:27:59;;;;;;;;;;;19.80;33.30;;;;;;8367722;28;19995;-45
2023/01/22 20:32:00;;;;;;;;;;;19.80;33.30;;;;;;8367749;28;19917;-46
2023/01/22 20:36:03;;;;;;;;;;;19.80;33.30;;;;;;8367019;28;19921;-46
2023/01/22 20:40:03;;;;;;;;;;;19.80;33.30;;;;;;8365981;28;19917;-46
2023/01/22 20:44:05;;;;;;;;;;;19.80;33.30;;;;;;8367061;28;20360;-46
2023/01/22 20:48:05;;;;;;;;;;;19.80;33.30;;;;;;8366368;28;20007;-46
2023/01/22 20:52:06;;;;;;;;;;;19.80;33.30;;;;;;8367092;28;19924;-46
2023/01/22 20:56:07;;;;;;;;;;;19.80;33.90;;;;;;8366901;28;19921;-45
2023/01/22 21:00:08;;;;;;;;;;;19.80;33.30;;;;;;8366134;28;19917;-45
2023/01/22 21:04:09;;;;;;;;;;;19.80;33.30;;;;;;8365771;28;19959;-46
2023/01/22 21:08:10;;;;;;;;;;;19.80;33.30;;;;;;8366580;28;19920;-47
2023/01/22 21:12:11;;;;;;;;;;;19.80;33.30;;;;;;8365829;28;19921;-46
2023/01/22 21:16:13;;;;;;;;;;;19.80;33.30;;;;;;8366160;28;19917;-45
2023/01/22 21:20:14;;;;;;;;;;;19.80;33.20;;;;;;8366191;28;19921;-47
2023/01/22 21:24:14;;;;;;;;;;;19.70;33.20;;;;;;8365383;28;20051;-46
2023/01/22 21:28:15;;;;;;;;;;;19.70;33.20;;;;;;8365673;28;20011;-46
2023/01/22 21:32:15;;;;;;;;;;;19.70;33.20;;;;;;8365229;28;20297;-46
2023/01/22 21:36:17;;;;;;;;;;;19.60;33.10;;;;;;8365378;28;19924;-46
2023/01/22 21:40:17;;;;;;;;;;;19.60;33.20;;;;;;8365661;28;19917;-45
2023/01/22 21:48:37;;;;;;;;;;;19.50;33.30;;;;;;8365301;28;20388;-46
2023/01/22 21:52:38;;;;;;;;;;;19.40;33.30;;;;;;8364973;28;19917;-48
2023/01/22 21:56:38;;;;;;;;;;;19.40;33.50;;;;;;8364163;28;19921;-47
2023/01/22 22:00:38;;;;;;;;;;;19.30;33.60;;;;;;8364024;28;19946;-46
2023/01/22 22:04:39;;;;;;;;;;;19.30;33.60;;;;;;8364553;28;20441;-47
2023/01/22 22:08:42;;;;;;;;;;;19.20;33.70;;;;;;8364224;28;19924;-46
2023/01/22 22:12:42;;;;;;;;;;;19.20;33.80;;;;;;8364510;28;19917;-47
2023/01/22 22:16:43;;;;;;;;;;;19.10;33.90;;;;;;8364291;28;19952;-46
2023/01/22 22:20:43;;;;;;;;;;;19.10;34.00;;;;;;8363675;28;20417;-46
2023/01/22 22:24:44;;;;;;;;;;;19.00;33.90;;;;;;8364315;28;20289;-47
2023/01/22 22:28:44;;;;;;;;;;;19.00;34.10;;;;;;8364105;28;19932;-46
2023/01/22 22:32:45;;;;;;;;;;;18.90;34.00;;;;;;8363476;28;19917;-47
2023/01/22 22:36:45;;;;;;;;;;;18.90;34.10;;;;;;8363710;28;19924;-46
2023/01/22 22:40:55;;;;;;;;;;;18.90;34.10;;;;;;8363634;28;19913;-47
2023/01/22 22:44:56;;;;;;;;;;;18.80;34.10;;;;;;8363175;28;19924;-47
2023/01/22 22:48:58;;;;;;;;;;;18.80;34.20;;;;;;8363569;28;19921;-46
2023/01/22 22:52:58;;;;;;;;;;;18.80;34.20;;;;;;8363378;28;19948;-46
2023/01/22 22:56:59;;;;;;;;;;;18.70;34.20;;;;;;8362558;28;19921;-46
2023/01/22 23:01:25;;;;;;;;;;;18.70;34.30;;;;;;8355818;28;19959;-46
2023/01/22 23:05:26;;;;;;;;;;;18.70;34.30;;;;;;8358624;28;19916;-45
2023/01/22 23:09:27;;;;;;;;;;;18.60;34.30;;;;;;8363053;28;19956;-46
2023/01/22 23:13:27;;;;;;;;;;;18.60;34.40;;;;;;8372627;28;19959;-46
2023/01/22 23:17:27;;;;;;;;;;;18.50;34.40;;;;;;8373579;28;19919;-46
2023/01/22 23:21:28;;;;;;;;;;;18.50;34.40;;;;;;8374132;28;19924;-44
2023/01/22 23:25:28;;;;;;;;;;;18.50;34.40;;;;;;8373801;28;19967;-45
2023/01/22 23:29:29;;;;;;;;;;;18.50;34.40;;;;;;8373612;28;19933;-44
2023/01/22 23:33:29;;;;;;;;;;;18.40;34.40;;;;;;8373837;28;20385;-45
2023/01/22 23:37:30;;;;;;;;;;;18.40;34.40;;;;;;8373830;28;19923;-46